Terminal Aerodrome Forecast
Issued by NWS

Home | Current Version | Previous Version | Text Only | Print | Product List | Glossary Off
Versions: 1 2 3 4 5 6 7 8 9 10 11 12 13 14 15 16 17 18 19 20 21 22 23 24

000
FTUS45 KGGW 240500
TAFGDV
TAF
KGDV 240520Z 2406/2506 27012KT P6SM VCSH BKN200
     FM241800 29017G25KT P6SM BKN200 WS020/32050KT
     FM250000 29017G26KT P6SM SCT240 WS020/32045KT
      AMD LTD TO CLD VIS AND WIND=

USA.gov is the U.S. government's official web portal to all federal, state and local government web resources and services.